Time;durP1;ratioP1;P1;durP2;ratioP2;P2;SDS_P1;SDS_P2;PMS_P1;PMS_P2;Temp;Humidity;BMP_temperature;BMP_pressure;BME280_temperature;BME280_humidity;BME280_pressure;Samples;Min_cycle;Max_cycle;Signal;HPM_P1;HPM_P2
2023/12/07 00:02:26;;;;;;;74.17;25.53;;;;;;;-1.83;98.56;100511.94;4185910;28;20387;-75
2023/12/07 00:04:53;;;;;;;73.10;25.57;;;;;;;-1.89;99.22;100504.25;4178723;28;20356;-72
2023/12/07 00:07:20;;;;;;;75.47;24.90;;;;;;;-1.95;99.64;100513.31;4185984;28;20246;-72
2023/12/07 00:09:46;;;;;;;70.93;25.47;;;;;;;-1.89;99.49;100507.78;4170211;28;21170;-72
2023/12/07 00:12:13;;;;;;;70.13;23.03;;;;;;;-1.83;99.46;100514.59;4182829;28;23082;-71
2023/12/07 00:14:39;;;;;;;70.77;24.47;;;;;;;-1.99;99.92;100507.28;4194701;28;20304;-74
2023/12/07 00:17:06;;;;;;;81.27;25.80;;;;;;;-1.94;100.00;100507.09;4184733;28;20291;-74
2023/12/07 00:19:34;;;;;;;72.00;24.40;;;;;;;-1.83;100.00;100518.13;4197898;28;20235;-75
2023/12/07 00:22:01;;;;;;;72.43;24.93;;;;;;;-1.95;100.00;100519.50;4178661;28;21216;-74
2023/12/07 00:24:27;;;;;;;66.23;24.90;;;;;;;-1.97;100.00;100513.38;4192063;28;20238;-72
2023/12/07 00:26:54;;;;;;;77.10;24.80;;;;;;;-1.92;100.00;100514.03;4181522;28;22239;-72
2023/12/07 00:29:21;;;;;;;77.00;24.50;;;;;;;-1.91;100.00;100521.09;4185798;28;21142;-72
2023/12/07 00:31:47;;;;;;;73.77;23.73;;;;;;;-1.76;100.00;100513.38;4187154;28;21537;-73
2023/12/07 00:34:14;;;;;;;81.30;24.90;;;;;;;-1.91;100.00;100515.78;4189891;28;20233;-71
2023/12/07 00:36:41;;;;;;;71.93;23.97;;;;;;;-1.80;100.00;100514.47;4186555;28;20249;-71
2023/12/07 00:39:08;;;;;;;82.13;24.50;;;;;;;-1.82;100.00;100516.31;4182559;28;20299;-73
2023/12/07 00:41:35;;;;;;;76.33;25.53;;;;;;;-1.69;100.00;100516.66;4186144;28;25686;-73
2023/12/07 00:44:01;;;;;;;70.00;24.30;;;;;;;-1.71;100.00;100515.84;4187272;28;20233;-71
2023/12/07 00:46:28;;;;;;;71.20;24.23;;;;;;;-1.72;100.00;100517.66;4182031;28;20575;-71
2023/12/07 00:48:55;;;;;;;73.73;24.30;;;;;;;-1.78;100.00;100521.41;4202817;28;21324;-72
2023/12/07 00:51:22;;;;;;;87.80;25.40;;;;;;;-1.81;100.00;100518.88;4212558;28;20236;-69
2023/12/07 00:53:48;;;;;;;76.43;25.10;;;;;;;-1.73;100.00;100515.03;4185845;28;20415;-70
2023/12/07 00:56:15;;;;;;;81.70;25.23;;;;;;;-1.79;100.00;100521.50;4183935;28;20263;-72
2023/12/07 00:58:41;;;;;;;76.60;24.93;;;;;;;-1.82;100.00;100525.16;4187044;28;22052;-72
2023/12/07 01:01:09;;;;;;;80.57;26.03;;;;;;;-1.81;100.00;100526.00;4185203;28;20287;-73
2023/12/07 01:03:36;;;;;;;76.87;25.73;;;;;;;-1.79;100.00;100521.50;4185200;28;20249;-71
2023/12/07 01:06:03;;;;;;;80.13;23.43;;;;;;;-1.86;100.00;100514.72;4187378;28;22617;-74
2023/12/07 01:08:30;;;;;;;98.07;27.73;;;;;;;-1.86;100.00;100528.00;4171774;28;20234;-70
2023/12/07 01:10:56;;;;;;;85.73;26.07;;;;;;;-1.80;100.00;100525.06;4192462;28;25494;-71
2023/12/07 01:13:24;;;;;;;80.60;26.33;;;;;;;-1.79;100.00;100526.81;4188145;28;20459;-74
2023/12/07 01:15:51;;;;;;;88.00;24.60;;;;;;;-1.80;100.00;100522.41;4189503;28;20309;-72
2023/12/07 01:18:17;;;;;;;84.57;27.50;;;;;;;-1.85;100.00;100527.06;4188905;28;20236;-71
2023/12/07 01:20:44;;;;;;;78.13;25.83;;;;;;;-1.92;100.00;100529.13;4177850;28;20665;-72
2023/12/07 01:23:10;;;;;;;80.40;25.47;;;;;;;-1.94;100.00;100530.97;4188672;28;20809;-71
2023/12/07 01:25:40;;;;;;;78.90;25.17;;;;;;;-1.91;100.00;100520.22;4197449;28;20295;-73
2023/12/07 01:28:07;;;;;;;82.07;26.07;;;;;;;-1.71;100.00;100521.16;4180584;28;20356;-71
2023/12/07 01:30:36;;;;;;;93.23;27.33;;;;;;;-1.71;100.00;100530.00;4184465;28;20631;-71
2023/12/07 01:33:02;;;;;;;94.03;26.43;;;;;;;-1.70;100.00;100525.53;4178835;28;20243;-72
2023/12/07 01:35:29;;;;;;;86.97;25.63;;;;;;;-1.67;100.00;100513.00;4196981;28;20237;-72
2023/12/07 01:37:56;;;;;;;96.57;27.27;;;;;;;-1.74;100.00;100522.16;4190226;28;20578;-70
2023/12/07 01:40:22;;;;;;;92.43;26.00;;;;;;;-1.73;100.00;100517.69;4185247;28;20300;-71
2023/12/07 01:42:51;;;;;;;100.63;28.23;;;;;;;-1.74;100.00;100519.50;4185927;28;20251;-71
2023/12/07 01:45:19;;;;;;;89.77;26.17;;;;;;;-1.72;100.00;100515.00;4192500;28;20313;-72
2023/12/07 01:47:47;;;;;;;87.70;26.93;;;;;;;-1.64;100.00;100514.63;4176612;28;21340;-75
2023/12/07 01:50:17;;;;;;;95.97;25.53;;;;;;;-1.79;100.00;100509.06;4185792;28;20237;-72
2023/12/07 01:52:47;;;;;;;94.37;27.50;;;;;;;-1.76;100.00;100508.06;4186132;28;20235;-71
2023/12/07 01:55:15;;;;;;;102.10;27.07;;;;;;;-1.79;100.00;100510.88;4177122;28;20304;-70
2023/12/07 01:57:44;;;;;;;100.57;27.53;;;;;;;-1.74;100.00;100510.69;4190172;28;22937;-72
2023/12/07 02:00:12;;;;;;;99.07;27.23;;;;;;;-1.74;100.00;100508.03;4194460;28;20353;-73
2023/12/07 02:02:40;;;;;;;101.97;26.93;;;;;;;-1.63;100.00;100508.41;4178538;28;21348;-70
2023/12/07 02:05:07;;;;;;;99.23;26.10;;;;;;;-1.70;100.00;100512.25;4184818;28;21034;-72
2023/12/07 02:07:34;;;;;;;103.17;27.70;;;;;;;-1.60;100.00;100510.94;4177301;28;25528;-72
2023/12/07 02:10:01;;;;;;;104.10;25.77;;;;;;;-1.68;100.00;100510.41;4183624;28;20228;-71
2023/12/07 02:12:29;;;;;;;94.23;26.37;;;;;;;-1.60;100.00;100516.25;4184418;28;20242;-72
2023/12/07 02:14:56;;;;;;;98.60;26.17;;;;;;;-1.62;100.00;100508.34;4186566;28;20253;-70
2023/12/07 02:17:37;;;;;;;100.13;26.83;;;;;;;-1.63;100.00;100511.94;4186786;28;20233;-71
2023/12/07 02:20:11;;;;;;;103.70;28.57;;;;;;;-1.69;100.00;100514.84;4188796;28;20249;-71
2023/12/07 02:22:43;;;;;;;103.40;27.37;;;;;;;-1.62;100.00;100513.63;4189812;28;20319;-70
2023/12/07 02:25:10;;;;;;;112.53;28.10;;;;;;;-1.63;100.00;100514.59;4178976;28;20250;-69
2023/12/07 02:27:39;;;;;;;107.67;27.33;;;;;;;-1.47;100.00;100511.22;4181839;28;20368;-69
2023/12/07 02:30:09;;;;;;;94.80;26.23;;;;;;;-1.61;100.00;100520.69;4187346;28;20238;-72
2023/12/07 02:32:37;;;;;;;107.87;29.07;;;;;;;-1.67;100.00;100515.66;4187124;28;20233;-70
2023/12/07 02:35:06;;;;;;;105.87;26.33;;;;;;;-1.64;100.00;100522.59;4167635;28;21555;-71
2023/12/07 02:37:45;;;;;;;113.43;27.63;;;;;;;-1.70;100.00;100517.56;4188574;28;20275;-71
2023/12/07 02:40:14;;;;;;;121.03;27.93;;;;;;;-1.64;100.00;100526.13;4184741;28;20249;-73
2023/12/07 02:42:42;;;;;;;112.43;27.60;;;;;;;-1.66;100.00;100527.16;4184956;28;20249;-70
2023/12/07 02:45:10;;;;;;;99.60;27.83;;;;;;;-1.70;100.00;100520.22;4184717;28;21823;-71
2023/12/07 02:47:38;;;;;;;105.87;26.00;;;;;;;-1.69;100.00;100525.47;4182997;28;20435;-72
2023/12/07 02:50:07;;;;;;;100.57;27.00;;;;;;;-1.63;100.00;100527.00;4185885;28;20241;-71
2023/12/07 02:52:34;;;;;;;97.87;24.83;;;;;;;-1.57;100.00;100518.75;4188993;28;20453;-71
2023/12/07 02:55:02;;;;;;;97.80;25.87;;;;;;;-1.56;100.00;100528.44;4186910;28;20229;-71
2023/12/07 02:57:29;;;;;;;102.50;23.67;;;;;;;-1.55;100.00;100524.00;4188410;28;22408;-69
2023/12/07 02:59:56;;;;;;;96.90;26.57;;;;;;;-1.50;100.00;100529.97;4192748;28;20569;-70
2023/12/07 03:02:23;;;;;;;89.63;24.33;;;;;;;-1.58;100.00;100527.63;4185870;28;22691;-71
2023/12/07 03:04:50;;;;;;;93.70;26.43;;;;;;;-1.51;100.00;100521.13;4187157;28;22890;-73
2023/12/07 03:07:17;;;;;;;94.47;26.27;;;;;;;-1.53;100.00;100527.44;4189285;28;20256;-70
2023/12/07 03:09:44;;;;;;;88.50;24.60;;;;;;;-1.59;100.00;100525.94;4185069;28;20917;-71
2023/12/07 03:12:10;;;;;;;97.67;26.67;;;;;;;-1.52;100.00;100518.56;4189079;28;21673;-70
2023/12/07 03:14:37;;;;;;;112.73;26.93;;;;;;;-1.55;100.00;100516.06;4186189;28;20459;-74
2023/12/07 03:17:04;;;;;;;92.03;25.00;;;;;;;-1.60;100.00;100518.91;4187712;28;20252;-70
2023/12/07 03:19:30;;;;;;;89.70;25.27;;;;;;;-1.48;100.00;100509.53;4186465;28;25295;-69
2023/12/07 03:21:57;;;;;;;102.50;26.47;;;;;;;-1.50;100.00;100511.38;4187591;28;20316;-69
2023/12/07 03:24:24;;;;;;;85.20;23.87;;;;;;;-1.42;100.00;100522.53;4185879;28;20622;-72
2023/12/07 03:26:50;;;;;;;95.10;25.77;;;;;;;-1.55;100.00;100522.22;4193787;28;20376;-70
2023/12/07 03:29:17;;;;;;;89.67;25.77;;;;;;;-1.59;100.00;100528.59;4186688;28;20241;-70
2023/12/07 03:31:44;;;;;;;80.37;23.40;;;;;;;-1.60;100.00;100521.56;4186071;28;20272;-69
2023/12/07 03:34:12;;;;;;;88.10;23.40;;;;;;;-1.48;100.00;100530.78;4188751;28;22894;-70
2023/12/07 03:36:39;;;;;;;75.73;22.87;;;;;;;-1.43;100.00;100523.47;4186176;28;21779;-71
2023/12/07 03:39:06;;;;;;;88.10;24.90;;;;;;;-1.61;100.00;100531.28;4183025;28;22311;-74
2023/12/07 03:41:32;;;;;;;91.33;23.60;;;;;;;-1.41;100.00;100528.69;4168989;28;21353;-71
2023/12/07 03:43:59;;;;;;;86.57;24.43;;;;;;;-1.54;100.00;100523.06;4188679;28;20245;-71
2023/12/07 03:46:26;;;;;;;92.67;24.30;;;;;;;-1.39;100.00;100534.81;4193095;28;21800;-72
2023/12/07 03:48:52;;;;;;;79.53;23.67;;;;;;;-1.37;100.00;100530.28;4186629;28;22313;-69
2023/12/07 03:51:19;;;;;;;76.03;24.47;;;;;;;-1.50;100.00;100522.00;4190550;28;22314;-72
2023/12/07 03:53:45;;;;;;;84.90;24.03;;;;;;;-1.40;100.00;100533.97;4184822;28;20317;-73
2023/12/07 03:56:25;;;;;;;74.77;23.33;;;;;;;-1.40;100.00;100535.72;4188141;28;20684;-70
2023/12/07 03:58:52;;;;;;;85.43;24.67;;;;;;;-1.41;100.00;100532.22;4185644;28;20340;-72
2023/12/07 04:01:26;;;;;;;80.17;23.23;;;;;;;-1.27;100.00;100536.91;4188715;28;20312;-73
2023/12/07 04:03:54;;;;;;;76.20;22.90;;;;;;;-1.36;100.00;100532.88;4187976;28;20252;-71
2023/12/07 04:06:22;;;;;;;81.13;23.70;;;;;;;-1.37;100.00;100536.47;4190303;28;20238;-69
2023/12/07 04:08:49;;;;;;;79.57;23.03;;;;;;;-1.50;100.00;100532.63;4178165;28;20233;-70
2023/12/07 04:11:16;;;;;;;78.93;23.70;;;;;;;-1.47;100.00;100529.81;4183563;28;20256;-69
2023/12/07 04:13:45;;;;;;;80.97;23.63;;;;;;;-1.46;100.00;100527.13;4189553;28;21176;-69
2023/12/07 04:16:12;;;;;;;91.53;25.23;;;;;;;-1.45;100.00;100539.47;4176068;28;20232;-73
2023/12/07 04:18:39;;;;;;;85.43;23.77;;;;;;;-1.37;100.00;100535.59;4188386;28;20241;-71
2023/12/07 04:21:06;;;;;;;71.20;22.37;;;;;;;-1.42;100.00;100530.50;4193608;28;21587;-72
2023/12/07 04:23:33;;;;;;;81.60;22.10;;;;;;;-1.42;100.00;100533.16;4193796;28;20332;-71
2023/12/07 04:25:59;;;;;;;74.77;23.73;;;;;;;-1.42;100.00;100529.63;4183257;28;20229;-71
2023/12/07 04:28:26;;;;;;;77.43;22.30;;;;;;;-1.46;100.00;100534.19;4191606;28;20229;-70
2023/12/07 04:30:53;;;;;;;76.53;22.83;;;;;;;-1.35;100.00;100523.97;4191489;28;20229;-69
2023/12/07 04:33:20;;;;;;;90.40;23.50;;;;;;;-1.47;100.00;100535.13;4186077;28;20237;-71
2023/12/07 04:35:47;;;;;;;82.03;22.47;;;;;;;-1.48;100.00;100522.81;4187604;28;20237;-73
2023/12/07 04:38:14;;;;;;;78.27;23.40;;;;;;;-1.38;100.00;100526.75;4174522;28;20234;-69
2023/12/07 04:40:41;;;;;;;83.70;24.50;;;;;;;-1.46;100.00;100523.59;4187468;28;20675;-70
2023/12/07 04:43:09;;;;;;;76.40;24.03;;;;;;;-1.52;100.00;100529.16;4185637;28;20341;-73
2023/12/07 04:45:36;;;;;;;78.37;24.50;;;;;;;-1.48;100.00;100533.44;4179775;28;20241;-69
2023/12/07 04:48:03;;;;;;;79.10;22.53;;;;;;;-1.34;100.00;100530.13;4179646;28;22567;-71
2023/12/07 04:50:30;;;;;;;79.70;23.53;;;;;;;-1.56;100.00;100525.78;4192810;28;21235;-70
2023/12/07 04:52:57;;;;;;;73.37;21.97;;;;;;;-1.48;100.00;100522.81;4190850;28;20606;-71
2023/12/07 04:55:24;;;;;;;70.47;22.27;;;;;;;-1.53;100.00;100530.09;4180953;28;21507;-74
2023/12/07 04:57:51;;;;;;;83.40;23.33;;;;;;;-1.58;100.00;100526.78;4190169;28;22543;-72
2023/12/07 05:00:17;;;;;;;81.73;23.47;;;;;;;-1.56;100.00;100538.22;4177424;28;20305;-72
2023/12/07 05:02:44;;;;;;;75.30;22.43;;;;;;;-1.36;100.00;100529.38;4185891;28;20241;-71
2023/12/07 05:05:11;;;;;;;80.97;24.07;;;;;;;-1.45;100.00;100534.16;4189226;28;20704;-72
2023/12/07 05:07:38;;;;;;;85.47;23.30;;;;;;;-1.48;100.00;100528.13;4194217;28;20230;-71
2023/12/07 05:10:06;;;;;;;75.87;22.73;;;;;;;-1.57;100.00;100536.47;4193155;28;20259;-71
2023/12/07 05:12:33;;;;;;;78.30;23.10;;;;;;;-1.49;100.00;100532.56;4187143;28;20241;-72
2023/12/07 05:15:00;;;;;;;82.90;23.07;;;;;;;-1.45;100.00;100539.47;4193197;28;20241;-73
2023/12/07 05:17:26;;;;;;;85.17;22.70;;;;;;;-1.44;100.00;100542.97;4201565;28;20545;-74
2023/12/07 05:19:53;;;;;;;69.47;22.53;;;;;;;-1.44;100.00;100542.97;4184779;28;20285;-73
2023/12/07 05:22:21;;;;;;;67.73;22.00;;;;;;;-1.38;100.00;100547.16;4205683;28;20925;-69
2023/12/07 05:24:50;;;;;;;89.87;23.33;;;;;;;-1.39;100.00;100550.75;4181139;28;20305;-71
2023/12/07 05:27:17;;;;;;;81.53;22.40;;;;;;;-1.41;100.00;100539.31;4171860;28;20363;-72
2023/12/07 05:29:44;;;;;;;69.97;21.93;;;;;;;-1.40;100.00;100549.88;4180982;28;20341;-71
2023/12/07 05:32:11;;;;;;;80.70;23.10;;;;;;;-1.37;100.00;100546.22;4175539;28;21212;-71
2023/12/07 05:34:37;;;;;;;73.33;22.83;;;;;;;-1.42;100.00;100548.19;4188613;28;20229;-69
2023/12/07 05:37:04;;;;;;;75.97;22.63;;;;;;;-1.37;100.00;100551.53;4189350;28;22264;-71
2023/12/07 05:39:31;;;;;;;70.97;22.50;;;;;;;-1.45;100.00;100546.56;4184901;28;22399;-70
2023/12/07 05:41:58;;;;;;;82.40;23.17;;;;;;;-1.37;100.00;100552.38;4182499;28;20245;-73
2023/12/07 05:44:24;;;;;;;73.80;22.30;;;;;;;-1.48;100.00;100552.03;4183820;28;21432;-71
2023/12/07 05:46:51;;;;;;;73.87;21.93;;;;;;;-1.44;100.00;100553.59;4186804;28;21346;-72
2023/12/07 05:49:18;;;;;;;80.07;23.57;;;;;;;-1.37;100.00;100551.53;4185489;28;20242;-73
2023/12/07 05:51:44;;;;;;;80.93;22.10;;;;;;;-1.35;100.00;100552.31;4184712;28;20252;-71
2023/12/07 05:54:11;;;;;;;69.60;21.93;;;;;;;-1.37;100.00;100556.84;4194160;28;20229;-74
2023/12/07 05:56:38;;;;;;;74.87;21.73;;;;;;;-1.30;100.00;100560.97;4190101;28;23530;-72
2023/12/07 05:59:05;;;;;;;76.30;21.67;;;;;;;-1.25;100.00;100555.44;4185831;28;22850;-73
2023/12/07 06:01:32;;;;;;;70.83;21.97;;;;;;;-1.41;100.00;100566.75;4188198;28;20497;-68
2023/12/07 06:03:59;;;;;;;75.77;22.27;;;;;;;-1.39;100.00;100570.16;4185751;28;20237;-72
2023/12/07 06:06:26;;;;;;;71.00;21.97;;;;;;;-1.36;100.00;100563.88;4190946;28;21496;-72
2023/12/07 06:08:52;;;;;;;74.07;21.77;;;;;;;-1.30;100.00;100572.44;4185174;28;20229;-72
2023/12/07 06:11:19;;;;;;;65.10;21.73;;;;;;;-1.31;100.00;100572.50;4184859;28;20246;-72
2023/12/07 06:13:46;;;;;;;60.67;21.10;;;;;;;-1.22;100.00;100572.09;4187055;28;20419;-72
2023/12/07 06:16:13;;;;;;;70.43;22.27;;;;;;;-1.22;100.00;100582.72;4184770;28;21523;-72
2023/12/07 06:18:40;;;;;;;67.70;22.77;;;;;;;-1.31;100.00;100586.63;4182167;28;21602;-71
2023/12/07 06:21:07;;;;;;;72.53;23.23;;;;;;;-1.28;100.00;100593.59;4174100;28;20530;-69
2023/12/07 06:23:35;;;;;;;65.30;21.00;;;;;;;-1.25;100.00;100589.97;4201344;28;20410;-71
2023/12/07 06:26:02;;;;;;;69.00;21.40;;;;;;;-1.36;100.00;100590.44;4177617;28;22204;-70
2023/12/07 06:28:29;;;;;;;68.90;22.00;;;;;;;-1.50;100.00;100591.03;4188081;28;20618;-69
2023/12/07 06:30:57;;;;;;;68.33;22.27;;;;;;;-1.40;100.00;100597.69;4186022;28;20341;-70
2023/12/07 06:33:24;;;;;;;73.10;22.47;;;;;;;-1.36;100.00;100596.59;4185414;28;21205;-70
2023/12/07 06:35:51;;;;;;;71.73;22.17;;;;;;;-1.34;100.00;100593.88;4187776;28;20230;-69
2023/12/07 06:38:17;;;;;;;72.27;22.47;;;;;;;-1.42;100.00;100594.22;4207100;28;20308;-70
2023/12/07 06:40:48;;;;;;;66.23;20.87;;;;;;;-1.42;100.00;100603.97;4190463;28;20233;-69
2023/12/07 06:43:15;;;;;;;67.47;22.10;;;;;;;-1.26;100.00;100607.69;4187649;28;20297;-67
2023/12/07 06:45:42;;;;;;;63.23;21.87;;;;;;;-1.19;100.00;100600.31;4190127;28;20249;-68
2023/12/07 06:48:09;;;;;;;66.27;22.23;;;;;;;-1.12;100.00;100607.09;4192278;28;22173;-71
2023/12/07 06:50:35;;;;;;;62.80;22.33;;;;;;;-1.14;100.00;100609.81;4194656;28;20379;-71
2023/12/07 06:53:02;;;;;;;64.07;21.50;;;;;;;-1.19;100.00;100611.78;4184050;28;20551;-68
2023/12/07 06:55:31;;;;;;;70.90;22.63;;;;;;;-1.25;100.00;100614.72;4189453;28;21134;-69
2023/12/07 06:57:59;;;;;;;68.17;21.23;;;;;;;-1.30;100.00;100603.44;4182359;28;20237;-69
2023/12/07 07:00:26;;;;;;;66.27;22.40;;;;;;;-1.21;100.00;100616.31;4207421;28;20729;-71
2023/12/07 07:02:53;;;;;;;69.07;21.27;;;;;;;-1.08;100.00;100615.78;4204722;28;20238;-69
2023/12/07 07:05:21;;;;;;;56.63;21.17;;;;;;;-1.04;100.00;100623.56;4187956;28;20310;-69
2023/12/07 07:07:51;;;;;;;61.80;20.73;;;;;;;-1.12;100.00;100610.59;4193593;28;21725;-69
2023/12/07 07:10:18;;;;;;;66.07;22.73;;;;;;;-1.11;100.00;100619.44;4195394;28;20252;-68
2023/12/07 07:12:44;;;;;;;60.37;21.40;;;;;;;-1.09;100.00;100622.03;4184740;28;21125;-69
2023/12/07 07:15:11;;;;;;;68.10;23.53;;;;;;;-1.05;100.00;100620.94;4192703;28;22940;-68
2023/12/07 07:17:38;;;;;;;65.40;20.33;;;;;;;-0.96;100.00;100623.19;4176029;28;20415;-71
2023/12/07 07:20:06;;;;;;;61.70;21.67;;;;;;;-1.02;100.00;100612.84;4177933;28;20278;-68
2023/12/07 07:22:33;;;;;;;60.03;20.43;;;;;;;-1.01;100.00;100615.41;4199831;28;21663;-69
2023/12/07 07:25:00;;;;;;;70.83;22.10;;;;;;;-0.97;100.00;100619.69;4193266;28;20243;-68
2023/12/07 07:27:27;;;;;;;68.50;23.33;;;;;;;-1.05;100.00;100618.28;4189893;28;22424;-70
2023/12/07 07:29:54;;;;;;;67.27;22.03;;;;;;;-1.13;100.00;100616.81;4185464;28;20233;-69
2023/12/07 07:32:20;;;;;;;66.27;21.93;;;;;;;-1.04;100.00;100618.25;4198325;28;22280;-69
2023/12/07 07:34:50;;;;;;;64.40;22.47;;;;;;;-0.92;100.00;100618.59;4188104;28;20380;-69
2023/12/07 07:37:17;;;;;;;64.00;21.80;;;;;;;-1.03;100.00;100617.31;4181285;28;20238;-69
2023/12/07 07:39:43;;;;;;;74.20;23.60;;;;;;;-0.96;100.00;100613.44;4190695;28;20241;-68
2023/12/07 07:42:10;;;;;;;60.03;23.17;;;;;;;-0.88;100.00;100617.53;4190902;28;20898;-70
2023/12/07 07:44:37;;;;;;;64.07;22.53;;;;;;;-1.02;100.00;100612.84;4183122;28;20264;-69
2023/12/07 07:47:04;;;;;;;70.67;25.07;;;;;;;-0.88;100.00;100622.84;4186427;28;20257;-68
2023/12/07 07:49:30;;;;;;;70.73;23.30;;;;;;;-0.68;100.00;100611.31;4186638;28;20277;-68
2023/12/07 07:51:57;;;;;;;64.03;23.50;;;;;;;-0.82;100.00;100607.47;4188478;28;20234;-68
2023/12/07 07:54:25;;;;;;;64.03;21.73;;;;;;;-0.91;100.00;100618.56;4222762;28;20280;-70
2023/12/07 07:56:52;;;;;;;68.43;22.47;;;;;;;-0.72;100.00;100625.66;4241152;28;20731;-69
2023/12/07 07:59:18;;;;;;;60.63;21.90;;;;;;;-0.78;100.00;100621.50;4239802;28;20238;-68
2023/12/07 08:01:49;;;;;;;64.50;22.13;;;;;;;-0.73;100.00;100624.81;4217785;28;20230;-67
2023/12/07 08:04:16;;;;;;;77.27;24.50;;;;;;;-0.75;100.00;100624.03;4206169;28;21689;-70
2023/12/07 08:06:43;;;;;;;60.17;22.90;;;;;;;-0.84;100.00;100619.13;4188873;28;21713;-70
2023/12/07 08:09:10;;;;;;;64.97;23.83;;;;;;;-0.87;100.00;100614.81;4179198;28;21421;-71
2023/12/07 08:11:37;;;;;;;58.87;21.10;;;;;;;-0.82;100.00;100625.22;4212624;28;25869;-67
2023/12/07 08:14:03;;;;;;;63.20;24.17;;;;;;;-0.76;100.00;100610.81;4186784;28;20280;-70
2023/12/07 08:16:30;;;;;;;59.43;22.70;;;;;;;-0.65;100.00;100621.78;4182829;28;20254;-71
2023/12/07 08:18:58;;;;;;;57.23;22.90;;;;;;;-0.57;100.00;100629.44;4183134;28;20256;-69
2023/12/07 08:21:25;;;;;;;69.57;23.57;;;;;;;-0.66;100.00;100626.25;4182915;28;20241;-69
2023/12/07 08:23:56;;;;;;;65.07;22.27;;;;;;;-0.76;100.00;100627.59;4185713;28;25506;-68
2023/12/07 08:26:23;;;;;;;64.73;22.87;;;;;;;-0.60;100.00;100621.59;4172499;28;20305;-66
2023/12/07 08:28:53;;;;;;;58.90;23.00;;;;;;;-0.65;100.00;100637.75;4177286;28;20474;-68
2023/12/07 08:31:22;;;;;;;65.80;24.00;;;;;;;-0.66;100.00;100636.03;4186351;28;20240;-69
2023/12/07 08:33:52;;;;;;;63.27;23.20;;;;;;;-0.74;100.00;100643.47;4184314;28;21685;-68
2023/12/07 08:36:20;;;;;;;63.90;22.97;;;;;;;-0.65;100.00;100643.06;4194999;28;20484;-70
2023/12/07 08:38:47;;;;;;;69.23;22.90;;;;;;;-0.78;100.00;100648.06;4190047;28;20303;-70
2023/12/07 08:41:13;;;;;;;66.07;23.47;;;;;;;-0.51;100.00;100647.75;4186542;28;20909;-70
2023/12/07 08:43:40;;;;;;;65.87;23.83;;;;;;;-0.56;100.00;100644.44;4187088;28;20625;-68
2023/12/07 08:46:07;;;;;;;61.47;23.13;;;;;;;-0.49;100.00;100643.22;4185191;28;22265;-68
2023/12/07 08:48:37;;;;;;;62.70;22.90;;;;;;;-0.42;100.00;100638.47;4188368;28;20234;-70
2023/12/07 08:51:09;;;;;;;63.60;23.37;;;;;;;-0.54;100.00;100635.47;4186558;28;20253;-72
2023/12/07 08:53:37;;;;;;;62.43;23.23;;;;;;;-0.59;100.00;100631.28;4189987;28;20272;-70
2023/12/07 08:56:04;;;;;;;62.23;23.60;;;;;;;-0.60;100.00;100635.72;4178558;28;20309;-73
2023/12/07 08:58:31;;;;;;;65.47;23.17;;;;;;;-0.52;100.00;100630.91;4197886;28;21657;-71
2023/12/07 09:00:58;;;;;;;68.17;24.43;;;;;;;-0.36;100.00;100638.19;4199837;28;20236;-72
2023/12/07 09:03:31;;;;;;;65.73;24.13;;;;;;;-0.46;100.00;100639.56;4212391;28;20239;-70
2023/12/07 09:06:02;;;;;;;63.70;23.43;;;;;;;-0.55;100.00;100640.84;4189594;28;20853;-68
2023/12/07 09:08:29;;;;;;;69.37;23.70;;;;;;;-0.50;100.00;100637.03;4195164;28;21513;-70
2023/12/07 09:10:56;;;;;;;61.73;23.60;;;;;;;-0.57;100.00;100643.56;4194841;28;20329;-72
2023/12/07 09:13:22;;;;;;;63.27;24.77;;;;;;;-0.58;100.00;100644.50;4192818;28;22283;-72
2023/12/07 09:15:50;;;;;;;67.40;22.77;;;;;;;-0.46;100.00;100635.09;4197055;28;20281;-68
2023/12/07 09:18:16;;;;;;;66.83;24.00;;;;;;;-0.45;100.00;100642.16;4190679;28;20237;-67
2023/12/07 09:20:46;;;;;;;67.57;24.10;;;;;;;-0.64;100.00;100642.97;4184407;28;20646;-70
2023/12/07 09:23:15;;;;;;;65.20;24.37;;;;;;;-0.52;100.00;100641.56;4193969;28;21154;-71
2023/12/07 09:25:42;;;;;;;65.30;24.27;;;;;;;-0.47;100.00;100645.81;4192593;28;20276;-72
2023/12/07 09:28:10;;;;;;;67.20;25.30;;;;;;;-0.42;100.00;100647.34;4189246;28;20305;-68
2023/12/07 09:30:37;;;;;;;70.90;25.93;;;;;;;-0.44;100.00;100643.00;4184669;28;21115;-68
2023/12/07 09:33:03;;;;;;;72.03;24.97;;;;;;;-0.55;100.00;100641.72;4187382;28;20246;-69
2023/12/07 09:35:31;;;;;;;61.73;24.77;;;;;;;-0.37;100.00;100647.97;4181280;28;20303;-68
2023/12/07 09:37:58;;;;;;;69.93;26.33;;;;;;;-0.38;100.00;100640.06;4197281;28;20250;-69
2023/12/07 09:40:25;;;;;;;61.20;24.53;;;;;;;-0.40;100.00;100637.47;4186825;28;20230;-70
2023/12/07 09:42:52;;;;;;;63.43;25.33;;;;;;;-0.39;100.00;100639.19;4181106;28;20244;-69
2023/12/07 09:45:20;;;;;;;70.60;25.93;;;;;;;-0.43;100.00;100632.31;4198869;28;20635;-67
2023/12/07 09:47:50;;;;;;;67.10;26.47;;;;;;;-0.38;100.00;100635.59;4184845;28;20419;-68
2023/12/07 09:50:21;;;;;;;64.73;25.40;;;;;;;-0.28;100.00;100636.03;4196272;28;21894;-68
2023/12/07 09:52:50;;;;;;;73.43;25.83;;;;;;;-0.18;100.00;100642.66;4186657;28;23142;-66
2023/12/07 09:55:30;;;;;;;59.20;25.10;;;;;;;-0.22;100.00;100646.38;4185413;28;20288;-65
2023/12/07 09:57:58;;;;;;;60.77;25.67;;;;;;;-0.26;100.00;100646.59;4192891;28;23360;-69
2023/12/07 10:00:25;;;;;;;59.87;23.63;;;;;;;-0.16;100.00;100647.88;4185368;28;20237;-67
2023/12/07 10:02:52;;;;;;;65.00;26.40;;;;;;;-0.25;100.00;100649.19;4182949;28;21087;-75
2023/12/07 10:05:21;;;;;;;67.43;25.63;;;;;;;-0.28;100.00;100643.16;4187237;28;21586;-70
2023/12/07 10:07:49;;;;;;;71.43;26.07;;;;;;;-0.38;100.00;100648.06;4189966;28;20305;-74
2023/12/07 10:10:18;;;;;;;64.53;25.83;;;;;;;-0.35;100.00;100642.56;4188165;28;20237;-68
2023/12/07 10:12:51;;;;;;;64.07;25.23;;;;;;;-0.09;100.00;100648.47;4188559;28;20317;-66
2023/12/07 10:15:19;;;;;;;66.50;24.20;;;;;;;-0.18;100.00;100639.09;4187610;28;20229;-67
2023/12/07 10:17:53;;;;;;;69.43;25.17;;;;;;;-0.07;100.00;100652.78;4185903;28;20241;-66
2023/12/07 10:20:24;;;;;;;69.27;26.07;;;;;;;-0.15;100.00;100651.44;4180988;28;20320;-66
2023/12/07 10:23:09;;;;;;;72.43;27.20;;;;;;;-0.28;100.00;100644.00;4191314;28;20977;-66
2023/12/07 10:25:38;;;;;;;71.23;25.80;;;;;;;-0.17;100.00;100646.16;4188451;28;20237;-68
2023/12/07 10:28:10;;;;;;;61.87;26.03;;;;;;;-0.14;100.00;100645.13;4193309;28;20672;-66
2023/12/07 10:30:39;;;;;;;64.83;26.20;;;;;;;-0.14;100.00;100650.47;4196904;28;20306;-67
2023/12/07 10:33:09;;;;;;;74.00;26.67;;;;;;;0.00;100.00;100642.69;4185787;28;20234;-64
2023/12/07 10:35:40;;;;;;;62.97;25.93;;;;;;;-0.02;100.00;100647.22;4201836;28;22273;-67
2023/12/07 10:38:12;;;;;;;71.37;25.20;;;;;;;-0.01;100.00;100646.28;4189271;28;20232;-67
2023/12/07 10:40:39;;;;;;;68.47;25.50;;;;;;;-0.13;100.00;100638.88;4203046;28;20233;-67
2023/12/07 10:43:07;;;;;;;64.20;25.90;;;;;;;-0.14;100.00;100645.13;4191080;28;22402;-65
2023/12/07 10:45:36;;;;;;;64.57;25.77;;;;;;;-0.01;100.00;100644.47;4186277;28;20241;-64
2023/12/07 10:48:09;;;;;;;68.87;26.33;;;;;;;-0.06;100.00;100643.84;4165595;28;20234;-65
2023/12/07 10:50:45;;;;;;;64.20;26.07;;;;;;;-0.21;100.00;100640.13;4195927;28;20238;-66
2023/12/07 10:53:26;;;;;;;71.23;27.33;;;;;;;-0.11;100.00;100639.69;4196555;28;20229;-66
2023/12/07 10:55:56;;;;;;;75.73;29.47;;;;;;;-0.07;100.00;100641.25;4186079;28;20252;-65
2023/12/07 10:58:25;;;;;;;66.87;28.13;;;;;;;-0.01;100.00;100646.28;4201908;28;23373;-66
2023/12/07 11:00:55;;;;;;;72.27;27.43;;;;;;;0.01;100.00;100646.22;4188752;28;25701;-64
2023/12/07 11:03:23;;;;;;;64.13;26.07;;;;;;;-0.12;100.00;100643.28;4184818;28;20237;-67
2023/12/07 11:05:51;;;;;;;64.00;26.00;;;;;;;0.00;100.00;100640.03;4182908;28;20297;-67